createdAt,value
2022-08-19T00:01:04.925Z,25.6
2022-08-19T00:11:06.605Z,25.5
2022-08-19T00:21:09.147Z,25.5
2022-08-19T00:31:11.528Z,25.5
2022-08-19T00:41:13.332Z,25.4
2022-08-19T00:51:15.137Z,25.4
2022-08-19T01:01:17.338Z,25.3
2022-08-19T01:11:19.277Z,25.3
2022-08-19T01:21:21.912Z,25.3
2022-08-19T01:31:26.588Z,25.2
2022-08-19T01:41:26.015Z,25.2
2022-08-19T01:51:28.551Z,25.2
2022-08-19T02:01:31.371Z,25.1
2022-08-19T02:21:35.144Z,25.1
2022-08-19T02:31:37.681Z,25
2022-08-19T02:41:39.703Z,25
2022-08-19T02:51:41.823Z,25
2022-08-19T03:01:44.393Z,24.9
2022-08-19T03:11:46.626Z,24.9
2022-08-19T03:21:48.364Z,24.9
2022-08-19T03:31:52.755Z,24.9
2022-08-19T03:42:30.169Z,24.8
2022-08-19T03:51:55.058Z,24.8
2022-08-19T04:01:57.651Z,24.8
2022-08-19T04:11:59.525Z,24.8
2022-08-19T04:22:02.062Z,24.7
2022-08-19T04:32:08.879Z,24.7
2022-08-19T04:42:05.881Z,24.7
2022-08-19T04:52:07.852Z,24.7
2022-08-19T05:02:10.414Z,24.7
2022-08-19T05:12:12.746Z,24.6
2022-08-19T05:22:14.802Z,24.6
2022-08-19T05:32:16.902Z,24.6
2022-08-19T05:42:19.078Z,24.6
2022-08-19T05:52:25.610Z,24.6
2022-08-19T06:02:23.600Z,24.7
2022-08-19T06:12:25.835Z,24.7
2022-08-19T06:22:27.742Z,24.7
2022-08-19T06:32:29.565Z,24.7
2022-08-19T06:42:31.412Z,24.7
2022-08-19T06:52:34.190Z,24.6
2022-08-19T07:02:35.350Z,24.7
2022-08-19T07:12:38.298Z,24.7
2022-08-19T07:22:39.895Z,24.8
2022-08-19T07:32:41.667Z,24.9
2022-08-19T07:42:43.403Z,25
2022-08-19T08:02:48.199Z,25
2022-08-19T08:13:09.017Z,25
2022-08-19T08:22:52.233Z,25
2022-08-19T08:32:54.551Z,25
2022-08-19T08:42:56.675Z,25.1
2022-08-19T08:52:58.577Z,25.1
2022-08-19T09:03:01.128Z,25.2
2022-08-19T09:13:03.039Z,25.2
2022-08-19T09:23:04.700Z,25.3
2022-08-19T09:33:06.776Z,25.3
2022-08-19T09:43:10.171Z,25.4
2022-08-19T09:53:11.419Z,25.4
2022-08-19T10:13:15.765Z,25.5
2022-08-19T10:23:18.273Z,25.5
2022-08-19T10:33:36.526Z,25.6
2022-08-19T10:53:25.466Z,25.7
2022-08-19T11:03:27.672Z,25.7
2022-08-19T11:13:29.712Z,25.7
2022-08-19T11:23:31.592Z,25.8
2022-08-19T11:33:33.634Z,25.8
2022-08-19T11:43:37.562Z,25.8
2022-08-19T11:53:38.518Z,25.8
2022-08-19T12:03:40.506Z,25.8
2022-08-19T12:13:42.600Z,25.9
2022-08-19T12:23:44.561Z,25.9
2022-08-19T12:33:46.656Z,25.9
2022-08-19T12:53:50.504Z,25.9
2022-08-19T13:03:52.399Z,26
2022-08-19T13:13:54.981Z,26
2022-08-19T13:14:18.890Z,26
2022-08-19T13:24:04.120Z,26
2022-08-19T13:44:08.812Z,26
2022-08-19T13:54:11.273Z,26
2022-08-19T14:04:13.597Z,26
2022-08-19T14:14:16.491Z,26.1
2022-08-19T14:24:17.698Z,26.1
2022-08-19T14:34:19.934Z,26.1
2022-08-19T14:54:23.540Z,26.1
2022-08-19T15:04:25.837Z,26.1
2022-08-19T15:14:28.362Z,26.1
2022-08-19T15:24:30.822Z,26.1
2022-08-19T15:34:32.907Z,26.1
2022-08-19T15:44:35.027Z,26.1
2022-08-19T15:54:37.664Z,26.2
2022-08-19T16:04:39.619Z,26.2
2022-08-19T16:14:41.806Z,26.2
2022-08-19T16:24:43.861Z,26.2
2022-08-19T16:34:46.406Z,26.2
2022-08-19T16:54:50.516Z,26.3
2022-08-19T17:04:55.687Z,26.3
2022-08-19T17:14:54.639Z,26.3
2022-08-19T17:24:58.209Z,26.3
2022-08-19T17:34:59.529Z,26.3
2022-08-19T17:45:01.520Z,26.3
2022-08-19T17:55:03.912Z,26.3
2022-08-19T18:05:06.121Z,26.3
2022-08-19T18:15:08.742Z,26.3
2022-08-19T18:25:11.176Z,26.3
2022-08-19T18:35:13.323Z,26.3
2022-08-19T18:45:15.775Z,26.3
2022-08-19T18:55:17.485Z,26.4
2022-08-19T19:05:20.001Z,26.4
2022-08-19T19:35:26.677Z,26.4
2022-08-19T19:45:28.512Z,26.4
2022-08-19T19:55:30.589Z,26.5
2022-08-19T20:05:32.930Z,26.5
2022-08-19T20:15:39.166Z,26.5
2022-08-19T20:25:37.540Z,26.5
2022-08-19T20:35:39.505Z,26.5
2022-08-19T20:55:43.953Z,26.5
2022-08-19T21:15:48.704Z,26.5
2022-08-19T21:35:52.605Z,26.5
2022-08-19T21:55:57.343Z,26.4
2022-08-19T22:16:01.741Z,26.4
2022-08-19T22:26:04.249Z,26.4
2022-08-19T22:36:05.970Z,26.3
2022-08-19T22:46:17.467Z,26.3
2022-08-19T22:56:14.581Z,26.3
2022-08-19T23:06:12.194Z,26.3
2022-08-19T23:16:14.082Z,26.3
2022-08-19T23:26:16.740Z,26.3
2022-08-19T23:36:19.348Z,26.2
2022-08-19T23:46:27.380Z,26.2
2022-08-19T23:56:23.304Z,26.2
